WC StCyr

Date de la prise de vue : 16/04/2024 02:45:30


N'ayant pas de Météo à StCyr, voilà les METAR et TAF de Villacoublay :
2024/04/16 00:30 LFPV 160030Z AUTO 26009KT 9999 SCT025 SCT031 05/03 Q1014 NOSIG
2024/04/15 21:21 TAF TAF LFPV 152000Z 1521/1621 27010KT 9999 FEW030 TX12/1615Z TN06/1603Z PROB30 1521/1522 4900 -SHRA BKN040TCU TEMPO 1609/1615 4900 -SHRA BKN009 BKN015TCU PROB40 1611/1616 27015G25KT BKN015CB TEMPO 1618/1620 32015G25KT 2500 SHRA BKN011 BKN025CB